createdAt,value
2023-04-26T00:01:11.452Z,49.75
2023-04-26T00:03:40.539Z,49.90
2023-04-26T00:06:09.859Z,50.15
2023-04-26T00:08:36.632Z,49.82
2023-04-26T00:11:03.270Z,49.53
2023-04-26T00:13:29.801Z,50.12
2023-04-26T00:15:56.325Z,49.98
2023-04-26T00:18:23.149Z,49.96
2023-04-26T00:20:49.616Z,49.75
2023-04-26T00:23:17.327Z,49.40
2023-04-26T00:25:44.151Z,49.33
2023-04-26T00:28:10.806Z,49.72
2023-04-26T00:30:41.200Z,49.50
2023-04-26T00:33:07.962Z,49.68
2023-04-26T00:35:34.439Z,50.40
2023-04-26T00:38:01.015Z,49.71
2023-04-26T00:40:27.537Z,49.93
2023-04-26T00:42:58.215Z,49.76
2023-04-26T00:45:24.735Z,50.69
2023-04-26T00:47:51.516Z,50.96
2023-04-26T00:50:18.238Z,50.76
2023-04-26T00:52:46.033Z,50.96
2023-04-26T00:55:13.083Z,50.67
2023-04-26T00:57:39.999Z,51.04
2023-04-26T01:00:10.856Z,50.77
2023-04-26T01:02:38.515Z,50.47
2023-04-26T01:05:06.336Z,50.65
2023-04-26T01:07:33.412Z,50.50
2023-04-26T01:10:00.056Z,50.76
2023-04-26T01:12:26.929Z,50.85
2023-04-26T01:14:53.833Z,50.83
2023-04-26T01:17:20.770Z,50.72
2023-04-26T01:19:48.880Z,51.09
2023-04-26T01:22:16.256Z,51.41
2023-04-26T01:24:46.131Z,52.22
2023-04-26T01:27:12.988Z,51.94
2023-04-26T01:29:39.700Z,52.08
2023-04-26T01:32:06.274Z,52.71
2023-04-26T01:34:34.459Z,52.11
2023-04-26T01:37:01.562Z,52.45
2023-04-26T01:39:28.044Z,52.28
2023-04-26T01:41:54.591Z,52.13
2023-04-26T01:44:21.029Z,52.20
2023-04-26T01:46:47.531Z,52.36
2023-04-26T01:49:14.025Z,53.15
2023-04-26T01:51:40.541Z,53.18
2023-04-26T01:54:07.334Z,53.32
2023-04-26T01:56:33.834Z,52.98
2023-04-26T01:59:00.541Z,53.33
2023-04-26T02:01:27.242Z,53.19
2023-04-26T02:03:53.851Z,53.90
2023-04-26T02:06:21.534Z,53.49
2023-04-26T02:08:48.095Z,53.95
2023-04-26T02:11:14.695Z,53.69
2023-04-26T02:13:41.226Z,53.20
2023-04-26T02:16:07.899Z,52.95
2023-04-26T02:18:34.734Z,53.25
2023-04-26T02:21:01.545Z,52.83
2023-04-26T02:23:28.002Z,52.63
2023-04-26T02:25:54.678Z,53.17
2023-04-26T02:28:21.255Z,53.10
2023-04-26T02:30:47.768Z,53.68
2023-04-26T02:33:14.215Z,53.19
2023-04-26T02:35:40.763Z,53.49
2023-04-26T02:38:07.387Z,55.42
2023-04-26T02:40:33.977Z,54.66
2023-04-26T02:43:00.517Z,54.38
2023-04-26T02:45:27.206Z,53.62
2023-04-26T02:47:53.746Z,53.80
2023-04-26T02:50:20.317Z,53.64
2023-04-26T02:52:46.804Z,53.80
2023-04-26T02:55:13.391Z,53.71
2023-04-26T02:57:39.891Z,54.07
2023-04-26T03:00:07.979Z,53.28
2023-04-26T03:02:34.678Z,53.18
2023-04-26T03:05:02.217Z,52.98
2023-04-26T03:07:28.719Z,53.43
2023-04-26T03:09:55.297Z,53.03
2023-04-26T03:12:21.753Z,53.36
2023-04-26T03:14:48.315Z,53.12
2023-04-26T03:17:14.774Z,53.43
2023-04-26T03:19:41.300Z,54.09
2023-04-26T03:22:07.808Z,53.50
2023-04-26T03:24:34.278Z,53.14
2023-04-26T03:27:00.759Z,54.39
2023-04-26T03:29:27.179Z,54.31
2023-04-26T03:31:53.698Z,53.94
2023-04-26T03:34:20.150Z,53.59
2023-04-26T03:36:46.998Z,53.73
2023-04-26T03:39:13.686Z,53.26
2023-04-26T03:41:40.473Z,53.39
2023-04-26T03:44:07.129Z,53.78
2023-04-26T03:46:33.936Z,53.69
2023-04-26T03:49:00.520Z,53.99
2023-04-26T03:51:28.229Z,53.70
2023-04-26T03:53:55.124Z,54.05
2023-04-26T03:56:21.967Z,54.85
2023-04-26T03:58:48.386Z,54.60
2023-04-26T04:01:15.647Z,54.81
2023-04-26T04:03:42.230Z,54.31
2023-04-26T04:06:09.152Z,53.93
2023-04-26T04:08:35.599Z,53.79
2023-04-26T04:11:02.359Z,54.25
2023-04-26T04:13:28.898Z,53.67
2023-04-26T04:15:55.733Z,54.21
2023-04-26T04:18:22.193Z,53.88
2023-04-26T04:20:48.994Z,54.02
2023-04-26T04:23:15.658Z,53.41
2023-04-26T04:25:42.296Z,53.44
2023-04-26T04:28:08.805Z,53.96
2023-04-26T04:30:35.606Z,54.56
2023-04-26T04:33:03.095Z,54.62
2023-04-26T04:35:33.602Z,54.25
2023-04-26T04:38:00.649Z,53.78
2023-04-26T04:40:27.848Z,54.46
2023-04-26T04:42:55.359Z,54.04
2023-04-26T04:45:22.154Z,53.77
2023-04-26T04:47:48.766Z,53.98
2023-04-26T04:50:15.934Z,53.43
2023-04-26T04:52:42.554Z,54.12
2023-04-26T04:55:09.864Z,53.74
2023-04-26T04:57:36.351Z,55.95
2023-04-26T05:00:10.209Z,54.39
2023-04-26T05:02:37.370Z,54.46
2023-04-26T05:05:05.077Z,54.14
2023-04-26T05:07:32.453Z,54.28
2023-04-26T05:09:59.678Z,54.46
2023-04-26T05:12:26.537Z,54.20
2023-04-26T05:14:53.263Z,54.71
2023-04-26T05:17:22.658Z,54.24
2023-04-26T05:19:49.187Z,53.50
2023-04-26T05:22:21.279Z,53.95
2023-04-26T05:24:51.383Z,54.23
2023-04-26T05:27:17.854Z,54.43
2023-04-26T05:29:44.424Z,54.05
2023-04-26T05:32:10.959Z,54.03
2023-04-26T05:34:38.585Z,54.62
2023-04-26T05:37:05.039Z,55.25
2023-04-26T05:39:31.868Z,56.97
2023-04-26T05:41:58.433Z,58.02
2023-04-26T05:44:24.887Z,58.19
2023-04-26T05:46:51.545Z,57.02
2023-04-26T05:49:18.064Z,57.67
2023-04-26T05:51:44.714Z,57.13
2023-04-26T05:54:11.334Z,56.56
2023-04-26T05:56:37.799Z,58.22
2023-04-26T05:59:04.264Z,57.59
2023-04-26T06:01:31.187Z,58.90
2023-04-26T06:04:00.513Z,57.94
2023-04-26T06:06:28.295Z,58.37
2023-04-26T06:08:55.041Z,58.17
2023-04-26T06:11:21.817Z,60.01
2023-04-26T06:13:48.416Z,59.79
2023-04-26T06:16:15.279Z,60.32
2023-04-26T06:18:43.099Z,59.40
2023-04-26T06:21:19.155Z,58.30
2023-04-26T06:23:46.695Z,59.99
2023-04-26T06:26:13.479Z,59.14
2023-04-26T06:28:42.217Z,59.26
2023-04-26T06:31:08.937Z,60.79
2023-04-26T06:33:35.794Z,61.16
2023-04-26T06:36:02.558Z,59.88
2023-04-26T06:38:29.359Z,59.97
2023-04-26T06:40:55.815Z,58.79
2023-04-26T06:43:22.511Z,58.71
2023-04-26T06:45:49.409Z,58.74
2023-04-26T06:48:16.078Z,57.57
2023-04-26T06:50:42.651Z,57.67
2023-04-26T06:53:09.560Z,57.59
2023-04-26T06:55:36.107Z,58.59
2023-04-26T06:58:02.958Z,57.03
2023-04-26T07:00:30.085Z,55.00
2023-04-26T07:02:57.125Z,53.90
2023-04-26T07:05:24.157Z,54.11
2023-04-26T07:07:50.788Z,53.97
2023-04-26T07:10:17.452Z,53.01
2023-04-26T07:12:44.255Z,53.18
2023-04-26T07:15:11.508Z,53.82
2023-04-26T07:17:38.059Z,51.98
2023-04-26T07:20:05.785Z,52.51
2023-04-26T07:22:32.253Z,51.54
2023-04-26T07:24:58.721Z,52.19
2023-04-26T07:27:25.295Z,50.97
2023-04-26T07:29:56.027Z,50.04
2023-04-26T07:32:22.617Z,49.46
2023-04-26T07:34:49.403Z,49.12
2023-04-26T07:37:16.058Z,47.63
2023-04-26T07:39:43.054Z,46.26
2023-04-26T07:42:10.596Z,44.91
2023-04-26T07:44:37.108Z,45.95
2023-04-26T07:47:03.586Z,45.09
2023-04-26T07:49:30.126Z,44.31
2023-04-26T07:51:58.124Z,43.95
2023-04-26T07:54:24.591Z,45.31
2023-04-26T07:56:51.152Z,44.55
2023-04-26T07:59:17.765Z,44.60
2023-04-26T08:01:44.348Z,42.75
2023-04-26T08:04:11.011Z,41.03
2023-04-26T08:06:38.840Z,44.55
2023-04-26T08:09:05.474Z,44.20
2023-04-26T08:11:32.665Z,44.10
2023-04-26T08:13:59.333Z,42.79
2023-04-26T08:16:25.892Z,41.41
2023-04-26T08:18:52.556Z,40.77
2023-04-26T08:21:19.139Z,42.01
2023-04-26T08:23:45.867Z,41.41
2023-04-26T08:26:12.462Z,43.04
2023-04-26T08:28:39.891Z,42.49
2023-04-26T08:31:06.629Z,38.72
2023-04-26T08:33:33.433Z,39.36
2023-04-26T08:36:01.368Z,40.70
2023-04-26T08:38:29.514Z,41.88
2023-04-26T08:40:59.224Z,41.19
2023-04-26T08:43:27.473Z,40.90
2023-04-26T08:45:54.916Z,41.48
2023-04-26T08:48:21.868Z,41.48
2023-04-26T08:50:48.429Z,40.06
2023-04-26T08:53:18.849Z,38.81
2023-04-26T08:55:51.537Z,38.14
2023-04-26T08:58:18.930Z,36.26
2023-04-26T09:00:46.275Z,34.65
2023-04-26T09:03:13.307Z,36.23
2023-04-26T09:05:44.296Z,37.12
2023-04-26T09:08:16.699Z,35.62
2023-04-26T09:10:43.290Z,33.81
2023-04-26T09:13:09.882Z,31.53
2023-04-26T09:15:36.799Z,33.06
2023-04-26T09:18:20.622Z,30.48
2023-04-26T09:21:02.208Z,31.01
2023-04-26T09:23:28.819Z,30.87
2023-04-26T09:25:55.571Z,32.61
2023-04-26T09:28:23.342Z,32.77
2023-04-26T09:30:50.113Z,33.85
2023-04-26T09:33:16.840Z,34.12
2023-04-26T09:35:43.930Z,33.84
2023-04-26T09:38:13.578Z,33.63
2023-04-26T09:40:49.115Z,32.58
2023-04-26T09:43:19.675Z,31.09
2023-04-26T09:45:50.978Z,30.42
2023-04-26T09:48:26.189Z,31.06
2023-04-26T09:50:54.708Z,32.79
2023-04-26T09:53:46.338Z,35.25
2023-04-26T09:56:14.680Z,34.08
2023-04-26T09:58:47.583Z,32.54
2023-04-26T10:01:19.208Z,32.17
2023-04-26T10:03:46.677Z,32.39
2023-04-26T10:06:13.908Z,28.67
2023-04-26T10:08:40.797Z,25.49
2023-04-26T10:11:07.938Z,24.30
2023-04-26T10:13:34.872Z,24.34
2023-04-26T10:16:04.793Z,24.23
2023-04-26T10:18:32.042Z,23.73
2023-04-26T10:21:01.297Z,26.87
2023-04-26T10:23:28.843Z,24.09
2023-04-26T10:25:56.357Z,24.85
2023-04-26T10:28:45.880Z,27.96
2023-04-26T10:31:12.621Z,31.83
2023-04-26T10:33:39.151Z,31.02
2023-04-26T10:36:11.099Z,29.69
2023-04-26T10:38:39.681Z,30.37
2023-04-26T10:41:30.138Z,29.18
2023-04-26T10:43:57.030Z,26.04
2023-04-26T10:46:35.258Z,25.44
2023-04-26T10:49:25.677Z,23.60
2023-04-26T10:52:12.736Z,22.57
2023-04-26T10:54:50.865Z,24.87
2023-04-26T10:57:17.504Z,23.53
2023-04-26T11:00:10.355Z,27.50
2023-04-26T11:02:53.395Z,30.67
2023-04-26T11:05:33.080Z,31.89
2023-04-26T11:08:07.710Z,31.99
2023-04-26T11:10:37.318Z,32.75
2023-04-26T11:13:04.464Z,33.56
2023-04-26T11:15:31.523Z,33.88
2023-04-26T11:17:58.670Z,34.30
2023-04-26T11:20:32.697Z,33.59
2023-04-26T11:22:59.661Z,32.63
2023-04-26T11:25:30.586Z,33.61
2023-04-26T11:27:59.075Z,35.42
2023-04-26T11:30:25.699Z,35.17
2023-04-26T11:32:52.578Z,34.52
2023-04-26T11:35:22.146Z,34.46
2023-04-26T11:37:51.981Z,33.18
2023-04-26T11:40:18.953Z,31.73
2023-04-26T11:42:46.775Z,29.32
2023-04-26T11:45:16.443Z,30.83
2023-04-26T11:47:44.177Z,30.29
2023-04-26T11:50:11.274Z,31.61
2023-04-26T11:52:38.005Z,32.36
2023-04-26T11:55:06.285Z,30.31
2023-04-26T11:57:34.833Z,31.56
2023-04-26T12:00:12.184Z,32.21
2023-04-26T12:02:38.978Z,34.78
2023-04-26T12:05:08.064Z,35.81
2023-04-26T12:07:37.196Z,33.15
2023-04-26T12:10:21.459Z,34.16
2023-04-26T12:12:49.867Z,33.58
2023-04-26T12:15:17.496Z,31.09
2023-04-26T12:17:57.085Z,28.72
2023-04-26T12:20:27.923Z,27.08
2023-04-26T12:23:08.261Z,27.47
2023-04-26T12:25:36.179Z,28.88
2023-04-26T12:28:11.963Z,26.96
2023-04-26T12:30:39.855Z,27.04
2023-04-26T12:33:16.538Z,26.30
2023-04-26T12:35:44.475Z,25.24
2023-04-26T12:38:12.276Z,24.63
2023-04-26T12:40:39.263Z,26.24
2023-04-26T12:43:05.944Z,25.83
2023-04-26T12:45:32.589Z,27.10
2023-04-26T12:47:59.182Z,26.94
2023-04-26T12:50:26.098Z,27.87
2023-04-26T12:52:52.704Z,29.59
2023-04-26T12:55:20.663Z,29.25
2023-04-26T12:57:47.250Z,30.25
2023-04-26T13:00:17.802Z,29.01
2023-04-26T13:02:44.555Z,29.75
2023-04-26T13:05:11.762Z,29.76
2023-04-26T13:07:40.540Z,29.25
2023-04-26T13:10:09.184Z,29.89
2023-04-26T13:12:38.649Z,30.08
2023-04-26T13:15:06.892Z,29.34
2023-04-26T13:17:34.618Z,28.67
2023-04-26T13:20:01.152Z,29.15
2023-04-26T13:22:28.037Z,30.12
2023-04-26T13:24:54.482Z,30.78
2023-04-26T13:27:21.085Z,29.45
2023-04-26T13:29:47.589Z,30.52
2023-04-26T13:32:14.205Z,29.78
2023-04-26T13:34:40.797Z,29.09
2023-04-26T13:37:07.595Z,28.39
2023-04-26T13:39:34.064Z,27.71
2023-04-26T13:42:01.935Z,27.12
2023-04-26T13:44:28.545Z,28.74
2023-04-26T13:46:56.421Z,29.53
2023-04-26T13:49:26.111Z,29.50
2023-04-26T13:51:53.678Z,28.24
2023-04-26T13:54:22.319Z,29.42
2023-04-26T13:56:49.102Z,28.62
2023-04-26T13:59:15.667Z,29.04
2023-04-26T14:01:42.239Z,28.15
2023-04-26T14:04:08.989Z,31.74
2023-04-26T14:06:36.036Z,30.60
2023-04-26T14:09:05.517Z,30.45
2023-04-26T14:11:32.195Z,29.15
2023-04-26T14:13:59.154Z,28.68
2023-04-26T14:16:26.781Z,28.29
2023-04-26T14:18:54.263Z,28.99
2023-04-26T14:21:20.939Z,28.77
2023-04-26T14:23:48.243Z,29.47
2023-04-26T14:26:16.519Z,28.55
2023-04-26T14:28:43.049Z,28.27
2023-04-26T14:31:10.887Z,28.27
2023-04-26T14:33:37.765Z,27.56
2023-04-26T14:36:05.144Z,26.67
2023-04-26T14:38:32.953Z,25.74
2023-04-26T14:40:59.960Z,25.88
2023-04-26T14:43:26.632Z,26.80
2023-04-26T14:45:53.346Z,28.19
2023-04-26T14:48:20.267Z,28.12
2023-04-26T14:50:47.428Z,28.71
2023-04-26T14:53:14.655Z,28.45
2023-04-26T14:55:41.221Z,27.64
2023-04-26T14:58:08.062Z,28.97
2023-04-26T15:00:34.930Z,28.12
2023-04-26T15:03:02.107Z,26.86
2023-04-26T15:05:29.252Z,28.14
2023-04-26T15:07:56.838Z,29.89
2023-04-26T15:10:23.596Z,29.80
2023-04-26T15:12:50.312Z,30.11
2023-04-26T15:15:17.321Z,29.88
2023-04-26T15:17:44.118Z,30.42
2023-04-26T15:20:11.349Z,29.98
2023-04-26T15:22:39.133Z,29.80
2023-04-26T15:25:06.596Z,29.00
2023-04-26T15:27:36.471Z,29.50
2023-04-26T15:30:04.603Z,28.82
2023-04-26T15:32:31.622Z,27.85
2023-04-26T15:34:58.644Z,27.93
2023-04-26T15:37:25.210Z,27.09
2023-04-26T15:39:52.292Z,27.35
2023-04-26T15:42:18.853Z,27.08
2023-04-26T15:44:45.629Z,28.30
2023-04-26T15:47:12.203Z,27.49
2023-04-26T15:49:38.917Z,27.30
2023-04-26T15:52:05.410Z,27.64
2023-04-26T15:54:31.936Z,27.68
2023-04-26T15:56:58.473Z,27.42
2023-04-26T15:59:25.313Z,26.78
2023-04-26T16:01:51.919Z,27.38
2023-04-26T16:04:18.683Z,26.39
2023-04-26T16:06:45.392Z,27.38
2023-04-26T16:09:24.655Z,27.19
2023-04-26T16:11:52.593Z,26.66
2023-04-26T16:14:19.179Z,28.36
2023-04-26T16:16:46.115Z,29.29
2023-04-26T16:19:13.414Z,28.28
2023-04-26T16:21:40.786Z,29.20
2023-04-26T16:24:09.332Z,29.11
2023-04-26T16:26:36.379Z,28.60
2023-04-26T16:29:04.228Z,28.91
2023-04-26T16:31:32.231Z,30.11
2023-04-26T16:34:00.216Z,29.25
2023-04-26T16:36:27.364Z,31.32
2023-04-26T16:38:54.950Z,32.00
2023-04-26T16:41:23.130Z,32.46
2023-04-26T16:43:52.577Z,32.39
2023-04-26T16:46:19.482Z,32.66
2023-04-26T16:48:46.450Z,33.22
2023-04-26T16:51:13.069Z,32.56
2023-04-26T16:53:39.731Z,32.29
2023-04-26T16:56:06.608Z,32.32
2023-04-26T16:58:35.055Z,32.47
2023-04-26T17:01:02.025Z,32.12
2023-04-26T17:03:29.097Z,32.02
2023-04-26T17:05:58.102Z,31.42
2023-04-26T17:08:26.014Z,31.62
2023-04-26T17:10:52.906Z,31.57
2023-04-26T17:13:19.675Z,31.43
2023-04-26T17:15:47.095Z,31.82
2023-04-26T17:18:13.789Z,32.08
2023-04-26T17:20:41.079Z,32.16
2023-04-26T17:23:08.987Z,32.70
2023-04-26T17:25:35.727Z,33.49
2023-04-26T17:28:02.250Z,33.64
2023-04-26T17:30:29.918Z,33.50
2023-04-26T17:32:56.728Z,33.48
2023-04-26T17:35:23.329Z,33.94
2023-04-26T17:37:50.220Z,34.08
2023-04-26T17:40:18.238Z,33.96
2023-04-26T17:42:46.134Z,34.33
2023-04-26T17:45:14.144Z,34.90
2023-04-26T17:47:42.413Z,34.58
2023-04-26T17:50:09.503Z,35.26
2023-04-26T17:52:36.953Z,34.95
2023-04-26T17:55:05.943Z,35.16
2023-04-26T17:57:32.455Z,35.26
2023-04-26T17:59:59.014Z,35.46
2023-04-26T18:02:25.724Z,35.38
2023-04-26T18:04:53.450Z,35.42
2023-04-26T18:07:20.584Z,35.32
2023-04-26T18:09:47.079Z,35.16
2023-04-26T18:12:13.520Z,35.40
2023-04-26T18:14:44.522Z,35.69
2023-04-26T18:17:12.773Z,35.69
2023-04-26T18:19:39.907Z,35.80
2023-04-26T18:22:07.618Z,35.79
2023-04-26T18:24:35.358Z,35.47
2023-04-26T18:27:02.735Z,35.45
2023-04-26T18:29:29.895Z,35.82
2023-04-26T18:31:56.967Z,36.01
2023-04-26T18:34:23.724Z,36.33
2023-04-26T18:36:50.478Z,36.54
2023-04-26T18:39:17.083Z,36.59
2023-04-26T18:41:43.907Z,37.09
2023-04-26T18:44:13.359Z,36.51
2023-04-26T18:46:43.415Z,36.66
2023-04-26T18:49:10.396Z,36.80
2023-04-26T18:51:36.985Z,36.69
2023-04-26T18:54:04.022Z,36.99
2023-04-26T18:56:31.503Z,37.08
2023-04-26T18:58:58.093Z,37.03
2023-04-26T19:01:24.799Z,37.49
2023-04-26T19:03:51.532Z,37.33
2023-04-26T19:06:18.220Z,38.44
2023-04-26T19:08:45.006Z,39.14
2023-04-26T19:11:12.335Z,39.39
2023-04-26T19:13:40.103Z,39.75
2023-04-26T19:16:07.519Z,39.59
2023-04-26T19:18:36.054Z,40.01
2023-04-26T19:21:04.529Z,40.53
2023-04-26T19:23:31.845Z,39.97
2023-04-26T19:26:06.022Z,40.26
2023-04-26T19:28:32.624Z,40.05
2023-04-26T19:30:59.500Z,39.69
2023-04-26T19:33:27.159Z,39.67
2023-04-26T19:35:53.871Z,39.50
2023-04-26T19:38:20.334Z,39.14
2023-04-26T19:40:46.890Z,39.54
2023-04-26T19:43:13.644Z,39.19
2023-04-26T19:45:40.992Z,39.60
2023-04-26T19:48:13.814Z,39.30
2023-04-26T19:50:41.303Z,39.57
2023-04-26T19:53:10.011Z,39.63
2023-04-26T19:55:37.810Z,39.84
2023-04-26T19:58:05.268Z,39.35
2023-04-26T20:00:32.045Z,39.20
2023-04-26T20:03:01.824Z,39.58
2023-04-26T20:05:28.721Z,39.72
2023-04-26T20:07:56.576Z,40.17
2023-04-26T20:10:23.111Z,41.10
2023-04-26T20:12:50.767Z,41.70
2023-04-26T20:15:18.008Z,42.30
2023-04-26T20:17:44.507Z,42.31
2023-04-26T20:20:12.051Z,43.34
2023-04-26T20:22:41.868Z,42.80
2023-04-26T20:25:08.886Z,42.06
2023-04-26T20:27:35.418Z,42.16
2023-04-26T20:30:02.637Z,41.91
2023-04-26T20:32:29.155Z,41.84
2023-04-26T20:34:56.326Z,42.41
2023-04-26T20:37:22.925Z,42.42
2023-04-26T20:39:53.351Z,42.63
2023-04-26T20:42:20.131Z,42.86
2023-04-26T20:44:46.711Z,42.58
2023-04-26T20:47:13.650Z,42.47
2023-04-26T20:49:40.158Z,42.38
2023-04-26T20:52:06.921Z,42.31
2023-04-26T20:54:33.858Z,42.25
2023-04-26T20:57:00.598Z,42.58
2023-04-26T20:59:27.147Z,43.34
2023-04-26T21:01:53.828Z,43.47
2023-04-26T21:04:20.756Z,43.06
2023-04-26T21:06:47.640Z,43.51
2023-04-26T21:09:14.270Z,43.40
2023-04-26T21:11:40.824Z,44.16
2023-04-26T21:14:07.665Z,44.81
2023-04-26T21:16:34.100Z,44.26
2023-04-26T21:19:00.675Z,43.67
2023-04-26T21:21:28.634Z,42.94
2023-04-26T21:23:55.218Z,42.76
2023-04-26T21:26:21.759Z,42.71
2023-04-26T21:28:48.554Z,42.91
2023-04-26T21:31:15.786Z,43.25
2023-04-26T21:33:42.306Z,43.54
2023-04-26T21:36:09.124Z,43.53
2023-04-26T21:38:35.919Z,43.57
2023-04-26T21:41:02.706Z,43.20
2023-04-26T21:43:29.240Z,43.15
2023-04-26T21:45:58.892Z,43.17
2023-04-26T21:48:26.432Z,42.84
2023-04-26T21:50:53.429Z,42.62
2023-04-26T21:53:20.270Z,42.80
2023-04-26T21:55:53.952Z,42.84
2023-04-26T21:58:21.365Z,42.98
2023-04-26T22:00:48.540Z,43.14
2023-04-26T22:03:15.231Z,43.52
2023-04-26T22:05:42.307Z,44.79
2023-04-26T22:08:08.818Z,45.41
2023-04-26T22:10:36.753Z,44.76
2023-04-26T22:13:03.314Z,45.25
2023-04-26T22:15:30.038Z,45.74
2023-04-26T22:17:56.695Z,45.77
2023-04-26T22:20:23.283Z,45.61
2023-04-26T22:22:49.850Z,46.03
2023-04-26T22:25:16.370Z,45.83
2023-04-26T22:27:42.877Z,45.23
2023-04-26T22:30:22.916Z,45.37
2023-04-26T22:32:54.539Z,45.67
2023-04-26T22:35:22.524Z,45.00
2023-04-26T22:37:49.256Z,45.20
2023-04-26T22:40:16.376Z,44.75
2023-04-26T22:42:43.677Z,44.42
2023-04-26T22:45:11.531Z,44.48
2023-04-26T22:47:38.451Z,44.41
2023-04-26T22:50:05.977Z,44.54
2023-04-26T22:52:32.720Z,44.88
2023-04-26T22:54:59.993Z,45.35
2023-04-26T22:57:27.678Z,45.63
2023-04-26T22:59:54.202Z,45.44
2023-04-26T23:02:21.069Z,45.65
2023-04-26T23:04:47.911Z,45.63
2023-04-26T23:07:14.456Z,45.84
2023-04-26T23:09:41.225Z,45.61
2023-04-26T23:12:07.964Z,45.81
2023-04-26T23:14:34.982Z,45.79
2023-04-26T23:17:02.736Z,45.50
2023-04-26T23:19:29.361Z,45.66
2023-04-26T23:21:56.408Z,45.82
2023-04-26T23:24:22.956Z,45.66
2023-04-26T23:26:49.676Z,45.55
2023-04-26T23:29:16.172Z,45.88
2023-04-26T23:31:42.998Z,45.96
2023-04-26T23:34:09.591Z,46.29
2023-04-26T23:36:36.105Z,46.39
2023-04-26T23:39:02.730Z,46.44
2023-04-26T23:41:29.702Z,46.50
2023-04-26T23:43:56.201Z,46.61
2023-04-26T23:46:22.868Z,46.61
2023-04-26T23:48:49.568Z,46.85
2023-04-26T23:51:16.320Z,47.13
2023-04-26T23:53:45.914Z,47.19
2023-04-26T23:56:13.513Z,47.82
2023-04-26T23:58:40.038Z,47.98
